sensor_id;sensor_type;location;lat;lon;timestamp;pressure;altitude;pressure_sealevel;temperature;humidity
28911;BME280;16028;42.642;23.310;2022-08-21T00:01:13;93503.03;;;18.85;100.00
28911;BME280;16028;42.642;23.310;2022-08-21T00:03:41;93494.06;;;18.92;100.00
28911;BME280;16028;42.642;23.310;2022-08-21T00:06:08;93491.84;;;18.89;100.00
28911;BME280;16028;42.642;23.310;2022-08-21T00:08:35;93498.97;;;18.89;100.00
28911;BME280;16028;42.642;23.310;2022-08-21T00:11:06;93488.34;;;18.95;100.00
28911;BME280;16028;42.642;23.310;2022-08-21T00:13:35;93483.28;;;19.00;100.00
28911;BME280;16028;42.642;23.310;2022-08-21T00:16:03;93478.41;;;19.04;100.00
28911;BME280;16028;42.642;23.310;2022-08-21T00:18:30;93483.88;;;19.02;100.00
28911;BME280;16028;42.642;23.310;2022-08-21T00:20:57;93481.88;;;18.98;100.00
28911;BME280;16028;42.642;23.310;2022-08-21T00:23:24;93478.03;;;18.94;100.00
28911;BME280;16028;42.642;23.310;2022-08-21T00:25:51;93472.22;;;18.85;100.00
28911;BME280;16028;42.642;23.310;2022-08-21T00:28:18;93478.06;;;18.87;100.00
28911;BME280;16028;42.642;23.310;2022-08-21T00:30:46;93472.41;;;18.84;100.00
28911;BME280;16028;42.642;23.310;2022-08-21T00:33:13;93473.66;;;18.81;100.00
28911;BME280;16028;42.642;23.310;2022-08-21T00:35:42;93474.06;;;18.78;100.00
28911;BME280;16028;42.642;23.310;2022-08-21T00:38:09;93474.66;;;18.80;100.00
28911;BME280;16028;42.642;23.310;2022-08-21T00:40:39;93477.06;;;18.88;100.00
28911;BME280;16028;42.642;23.310;2022-08-21T00:43:08;93479.00;;;18.99;100.00
28911;BME280;16028;42.642;23.310;2022-08-21T00:45:35;93478.44;;;18.97;100.00
28911;BME280;16028;42.642;23.310;2022-08-21T00:48:04;93482.31;;;18.95;100.00
28911;BME280;16028;42.642;23.310;2022-08-21T00:50:35;93479.66;;;18.95;100.00
28911;BME280;16028;42.642;23.310;2022-08-21T00:53:03;93485.94;;;18.94;100.00
28911;BME280;16028;42.642;23.310;2022-08-21T00:55:33;93469.13;;;18.95;100.00
28911;BME280;16028;42.642;23.310;2022-08-21T00:58:06;93472.75;;;18.94;100.00
28911;BME280;16028;42.642;23.310;2022-08-21T01:00:37;93479.41;;;19.03;100.00
28911;BME280;16028;42.642;23.310;2022-08-21T01:03:10;93476.34;;;19.06;100.00
28911;BME280;16028;42.642;23.310;2022-08-21T01:05:38;93470.06;;;19.07;100.00
28911;BME280;16028;42.642;23.310;2022-08-21T01:08:08;93462.53;;;19.11;100.00
28911;BME280;16028;42.642;23.310;2022-08-21T01:10:37;93459.25;;;19.15;100.00
28911;BME280;16028;42.642;23.310;2022-08-21T01:13:06;93461.06;;;19.15;100.00
28911;BME280;16028;42.642;23.310;2022-08-21T01:15:38;93459.91;;;19.11;100.00
28911;BME280;16028;42.642;23.310;2022-08-21T01:18:08;93459.28;;;19.09;100.00
28911;BME280;16028;42.642;23.310;2022-08-21T01:20:37;93454.63;;;19.11;100.00
28911;BME280;16028;42.642;23.310;2022-08-21T01:23:08;93452.19;;;19.09;100.00
28911;BME280;16028;42.642;23.310;2022-08-21T01:25:35;93457.69;;;19.08;100.00
28911;BME280;16028;42.642;23.310;2022-08-21T01:28:08;93455.84;;;19.08;100.00
28911;BME280;16028;42.642;23.310;2022-08-21T01:30:37;93447.72;;;19.10;100.00
28911;BME280;16028;42.642;23.310;2022-08-21T01:33:05;93451.75;;;19.12;100.00
28911;BME280;16028;42.642;23.310;2022-08-21T01:35:31;93458.81;;;19.18;100.00
28911;BME280;16028;42.642;23.310;2022-08-21T01:37:58;93459.03;;;19.17;100.00
28911;BME280;16028;42.642;23.310;2022-08-21T01:40:27;93454.78;;;19.16;100.00
28911;BME280;16028;42.642;23.310;2022-08-21T01:42:54;93459.91;;;19.11;100.00
28911;BME280;16028;42.642;23.310;2022-08-21T01:45:21;93458.28;;;19.10;100.00
28911;BME280;16028;42.642;23.310;2022-08-21T01:47:48;93458.06;;;19.11;100.00
28911;BME280;16028;42.642;23.310;2022-08-21T01:50:18;93455.22;;;19.13;100.00
28911;BME280;16028;42.642;23.310;2022-08-21T01:52:46;93456.44;;;19.10;100.00
28911;BME280;16028;42.642;23.310;2022-08-21T01:55:14;93449.81;;;19.01;100.00
28911;BME280;16028;42.642;23.310;2022-08-21T01:57:42;93460.97;;;18.96;100.00
28911;BME280;16028;42.642;23.310;2022-08-21T02:00:13;93462.66;;;18.91;100.00
28911;BME280;16028;42.642;23.310;2022-08-21T02:02:42;93459.44;;;18.89;100.00
28911;BME280;16028;42.642;23.310;2022-08-21T02:05:12;93463.88;;;18.88;100.00
28911;BME280;16028;42.642;23.310;2022-08-21T02:07:42;93466.09;;;18.91;100.00
28911;BME280;16028;42.642;23.310;2022-08-21T02:10:12;93465.88;;;18.93;100.00
28911;BME280;16028;42.642;23.310;2022-08-21T02:12:39;93468.91;;;18.96;100.00
28911;BME280;16028;42.642;23.310;2022-08-21T02:15:08;93475.19;;;18.95;100.00
28911;BME280;16028;42.642;23.310;2022-08-21T02:17:41;93471.56;;;18.90;100.00
28911;BME280;16028;42.642;23.310;2022-08-21T02:20:09;93470.59;;;18.84;100.00
28911;BME280;16028;42.642;23.310;2022-08-21T02:22:39;93460.66;;;18.80;100.00
28911;BME280;16028;42.642;23.310;2022-08-21T02:25:07;93467.56;;;18.81;100.00
28911;BME280;16028;42.642;23.310;2022-08-21T02:27:38;93471.00;;;18.81;100.00
28911;BME280;16028;42.642;23.310;2022-08-21T02:30:08;93476.47;;;18.80;100.00
28911;BME280;16028;42.642;23.310;2022-08-21T02:32:35;93485.63;;;18.77;100.00
28911;BME280;16028;42.642;23.310;2022-08-21T02:35:02;93485.63;;;18.77;100.00
28911;BME280;16028;42.642;23.310;2022-08-21T02:37:29;93479.53;;;18.77;100.00
28911;BME280;16028;42.642;23.310;2022-08-21T02:39:56;93480.78;;;18.74;100.00
28911;BME280;16028;42.642;23.310;2022-08-21T02:42:23;93490.88;;;18.77;100.00
28911;BME280;16028;42.642;23.310;2022-08-21T02:44:50;93480.75;;;18.81;100.00
28911;BME280;16028;42.642;23.310;2022-08-21T02:47:18;93477.28;;;18.80;100.00
28911;BME280;16028;42.642;23.310;2022-08-21T02:49:45;93483.38;;;18.81;100.00
28911;BME280;16028;42.642;23.310;2022-08-21T02:52:12;93478.56;;;18.71;100.00
28911;BME280;16028;42.642;23.310;2022-08-21T02:54:39;93477.75;;;18.71;100.00
28911;BME280;16028;42.642;23.310;2022-08-21T02:57:06;93475.31;;;18.76;100.00
28911;BME280;16028;42.642;23.310;2022-08-21T02:59:33;93482.41;;;18.75;100.00
28911;BME280;16028;42.642;23.310;2022-08-21T03:02:00;93487.88;;;18.74;100.00
28911;BME280;16028;42.642;23.310;2022-08-21T03:04:28;93483.22;;;18.76;100.00
28911;BME280;16028;42.642;23.310;2022-08-21T03:06:55;93478.72;;;18.76;100.00
28911;BME280;16028;42.642;23.310;2022-08-21T03:09:21;93481.34;;;18.76;100.00
28911;BME280;16028;42.642;23.310;2022-08-21T03:11:49;93487.03;;;18.80;100.00
28911;BME280;16028;42.642;23.310;2022-08-21T03:14:16;93479.34;;;18.78;100.00
28911;BME280;16028;42.642;23.310;2022-08-21T03:16:43;93474.88;;;18.79;100.00
28911;BME280;16028;42.642;23.310;2022-08-21T03:19:10;93479.94;;;18.80;100.00
28911;BME280;16028;42.642;23.310;2022-08-21T03:21:38;93477.28;;;18.80;100.00
28911;BME280;16028;42.642;23.310;2022-08-21T03:24:05;93470.03;;;18.76;100.00
28911;BME280;16028;42.642;23.310;2022-08-21T03:26:34;93473.88;;;18.73;100.00
28911;BME280;16028;42.642;23.310;2022-08-21T03:29:01;93476.50;;;18.73;100.00
28911;BME280;16028;42.642;23.310;2022-08-21T03:31:28;93472.44;;;18.77;100.00
28911;BME280;16028;42.642;23.310;2022-08-21T03:33:56;93469.59;;;18.79;100.00
28911;BME280;16028;42.642;23.310;2022-08-21T03:36:24;93471.22;;;18.80;100.00
28911;BME280;16028;42.642;23.310;2022-08-21T03:38:52;93472.84;;;18.81;100.00
28911;BME280;16028;42.642;23.310;2022-08-21T03:41:19;93470.00;;;18.82;100.00
28911;BME280;16028;42.642;23.310;2022-08-21T03:43:46;93466.72;;;18.87;100.00
28911;BME280;16028;42.642;23.310;2022-08-21T03:46:13;93462.06;;;18.89;100.00
28911;BME280;16028;42.642;23.310;2022-08-21T03:48:40;93462.28;;;18.81;100.00
28911;BME280;16028;42.642;23.310;2022-08-21T03:51:07;93470.00;;;18.82;100.00
28911;BME280;16028;42.642;23.310;2022-08-21T03:53:35;93476.47;;;18.80;100.00
28911;BME280;16028;42.642;23.310;2022-08-21T03:56:04;93494.53;;;18.76;100.00
28911;BME280;16028;42.642;23.310;2022-08-21T03:58:31;93489.91;;;18.72;100.00
28911;BME280;16028;42.642;23.310;2022-08-21T04:00:59;93496.00;;;18.72;100.00
28911;BME280;16028;42.642;23.310;2022-08-21T04:03:27;93487.88;;;18.74;100.00
28911;BME280;16028;42.642;23.310;2022-08-21T04:05:54;93491.13;;;18.76;100.00
28911;BME280;16028;42.642;23.310;2022-08-21T04:08:21;93496.97;;;18.78;100.00
28911;BME280;16028;42.642;23.310;2022-08-21T04:10:50;93502.38;;;18.89;100.00
28911;BME280;16028;42.642;23.310;2022-08-21T04:13:20;93493.50;;;18.84;100.00
28911;BME280;16028;42.642;23.310;2022-08-21T04:15:47;93493.53;;;18.77;100.00
28911;BME280;16028;42.642;23.310;2022-08-21T04:18:14;93492.72;;;18.77;100.00
28911;BME280;16028;42.642;23.310;2022-08-21T04:20:43;93488.88;;;18.79;100.00
28911;BME280;16028;42.642;23.310;2022-08-21T04:23:11;93499.00;;;18.82;100.00
28911;BME280;16028;42.642;23.310;2022-08-21T04:25:38;93486.00;;;18.81;100.00
28911;BME280;16028;42.642;23.310;2022-08-21T04:28:05;93486.03;;;18.74;100.00
28911;BME280;16028;42.642;23.310;2022-08-21T04:30:33;93485.06;;;18.69;100.00
28911;BME280;16028;42.642;23.310;2022-08-21T04:33:00;93492.34;;;18.67;100.00
28911;BME280;16028;42.642;23.310;2022-08-21T04:35:28;93490.53;;;18.67;100.00
28911;BME280;16028;42.642;23.310;2022-08-21T04:37:55;93487.88;;;18.67;100.00
28911;BME280;16028;42.642;23.310;2022-08-21T04:40:25;93478.56;;;18.71;100.00
28911;BME280;16028;42.642;23.310;2022-08-21T04:42:53;93484.06;;;18.70;100.00
28911;BME280;16028;42.642;23.310;2022-08-21T04:45:23;93478.16;;;18.68;100.00
28911;BME280;16028;42.642;23.310;2022-08-21T04:47:54;93478.41;;;18.60;100.00
28911;BME280;16028;42.642;23.310;2022-08-21T04:50:25;93481.25;;;18.58;100.00
28911;BME280;16028;42.642;23.310;2022-08-21T04:52:56;93492.41;;;18.60;100.00
28911;BME280;16028;42.642;23.310;2022-08-21T04:55:24;93488.13;;;18.59;100.00
28911;BME280;16028;42.642;23.310;2022-08-21T04:57:55;93488.13;;;18.59;100.00
28911;BME280;16028;42.642;23.310;2022-08-21T05:00:23;93482.84;;;18.66;100.00
28911;BME280;16028;42.642;23.310;2022-08-21T05:02:53;93485.06;;;18.69;100.00
28911;BME280;16028;42.642;23.310;2022-08-21T05:05:22;93495.78;;;18.74;100.00
28911;BME280;16028;42.642;23.310;2022-08-21T05:07:49;93490.88;;;18.77;100.00
28911;BME280;16028;42.642;23.310;2022-08-21T05:10:15;93489.84;;;18.85;100.00
28911;BME280;16028;42.642;23.310;2022-08-21T05:12:43;93489.19;;;18.89;100.00
28911;BME280;16028;42.642;23.310;2022-08-21T05:15:11;93484.94;;;18.95;100.00
28911;BME280;16028;42.642;23.310;2022-08-21T05:17:38;93485.69;;;19.02;100.00
28911;BME280;16028;42.642;23.310;2022-08-21T05:20:19;93482.44;;;19.07;100.00
28911;BME280;16028;42.642;23.310;2022-08-21T05:22:46;93487.34;;;18.96;100.00
28911;BME280;16028;42.642;23.310;2022-08-21T05:25:12;93498.47;;;18.98;100.00
28911;BME280;16028;42.642;23.310;2022-08-21T05:27:39;93502.13;;;19.04;100.00
28911;BME280;16028;42.642;23.310;2022-08-21T05:30:09;93489.94;;;19.03;100.00
28911;BME280;16028;42.642;23.310;2022-08-21T05:32:36;93490.56;;;18.98;100.00
28911;BME280;16028;42.642;23.310;2022-08-21T05:35:05;93487.91;;;19.05;100.00
28911;BME280;16028;42.642;23.310;2022-08-21T05:37:33;93485.16;;;19.25;100.00
28911;BME280;16028;42.642;23.310;2022-08-21T05:40:06;93486.72;;;19.32;100.00
28911;BME280;16028;42.642;23.310;2022-08-21T05:42:33;93487.34;;;19.28;100.00
28911;BME280;16028;42.642;23.310;2022-08-21T05:45:00;93482.09;;;19.28;100.00
28911;BME280;16028;42.642;23.310;2022-08-21T05:47:30;93477.84;;;19.27;100.00
28911;BME280;16028;42.642;23.310;2022-08-21T05:49:56;93476.81;;;19.28;100.00
28911;BME280;16028;42.642;23.310;2022-08-21T05:52:23;93472.34;;;19.28;100.00
28911;BME280;16028;42.642;23.310;2022-08-21T05:54:51;93475.31;;;19.38;100.00
28911;BME280;16028;42.642;23.310;2022-08-21T05:57:19;93476.13;;;19.45;100.00
28911;BME280;16028;42.642;23.310;2022-08-21T05:59:46;93482.03;;;19.41;100.00
28911;BME280;16028;42.642;23.310;2022-08-21T06:02:13;93474.94;;;19.41;100.00
28911;BME280;16028;42.642;23.310;2022-08-21T06:04:40;93483.66;;;19.35;100.00
28911;BME280;16028;42.642;23.310;2022-08-21T06:07:08;93481.59;;;19.37;100.00
28911;BME280;16028;42.642;23.310;2022-08-21T06:09:35;93483.25;;;19.38;100.00
28911;BME280;16028;42.642;23.310;2022-08-21T06:12:05;93480.44;;;19.40;100.00
28911;BME280;16028;42.642;23.310;2022-08-21T06:14:32;93485.00;;;19.51;100.00
28911;BME280;16028;42.642;23.310;2022-08-21T06:17:02;93486.44;;;19.47;100.00
28911;BME280;16028;42.642;23.310;2022-08-21T06:19:29;93480.25;;;19.60;100.00
28911;BME280;16028;42.642;23.310;2022-08-21T06:21:56;93475.88;;;19.78;100.00
28911;BME280;16028;42.642;23.310;2022-08-21T06:24:23;93477.78;;;19.89;100.00
28911;BME280;16028;42.642;23.310;2022-08-21T06:26:50;93473.50;;;20.13;100.00
28911;BME280;16028;42.642;23.310;2022-08-21T06:29:18;93468.63;;;20.35;100.00
28911;BME280;16028;42.642;23.310;2022-08-21T06:31:45;93471.84;;;20.55;100.00
28911;BME280;16028;42.642;23.310;2022-08-21T06:34:12;93478.66;;;20.63;100.00
28911;BME280;16028;42.642;23.310;2022-08-21T06:36:39;93480.56;;;20.55;100.00
28911;BME280;16028;42.642;23.310;2022-08-21T06:39:06;93483.09;;;20.50;100.00
28911;BME280;16028;42.642;23.310;2022-08-21T06:41:33;93490.50;;;20.42;100.00
28911;BME280;16028;42.642;23.310;2022-08-21T06:44:00;93489.31;;;20.38;100.00
28911;BME280;16028;42.642;23.310;2022-08-21T06:46:29;93488.06;;;20.40;100.00
28911;BME280;16028;42.642;23.310;2022-08-21T06:48:56;93487.25;;;20.40;100.00
28911;BME280;16028;42.642;23.310;2022-08-21T06:51:25;93487.56;;;20.32;100.00
28911;BME280;16028;42.642;23.310;2022-08-21T06:53:52;93483.72;;;20.28;100.00
28911;BME280;16028;42.642;23.310;2022-08-21T06:56:19;93492.50;;;20.22;100.00
28911;BME280;16028;42.642;23.310;2022-08-21T06:58:46;93491.56;;;20.16;100.00
28911;BME280;16028;42.642;23.310;2022-08-21T07:01:13;93494.72;;;20.25;100.00
28911;BME280;16028;42.642;23.310;2022-08-21T07:03:46;93505.44;;;20.30;100.00
28911;BME280;16028;42.642;23.310;2022-08-21T07:06:13;93502.63;;;20.25;100.00
28911;BME280;16028;42.642;23.310;2022-08-21T07:08:45;93499.41;;;20.23;100.00
28911;BME280;16028;42.642;23.310;2022-08-21T07:11:17;93488.84;;;20.23;100.00
28911;BME280;16028;42.642;23.310;2022-08-21T07:13:53;93497.34;;;20.25;100.00
28911;BME280;16028;42.642;23.310;2022-08-21T07:16:27;93503.25;;;20.27;100.00
28911;BME280;16028;42.642;23.310;2022-08-21T07:19:04;93499.06;;;20.37;100.00
28911;BME280;16028;42.642;23.310;2022-08-21T07:21:32;93493.84;;;20.49;100.00
28911;BME280;16028;42.642;23.310;2022-08-21T07:24:10;93497.69;;;20.53;100.00
28911;BME280;16028;42.642;23.310;2022-08-21T07:26:44;93492.97;;;20.55;100.00
28911;BME280;16028;42.642;23.310;2022-08-21T07:29:19;93479.91;;;20.60;100.00
28911;BME280;16028;42.642;23.310;2022-08-21T07:31:49;93484.75;;;20.63;100.00
28911;BME280;16028;42.642;23.310;2022-08-21T07:34:23;93484.03;;;20.56;100.00
28911;BME280;16028;42.642;23.310;2022-08-21T07:36:54;93477.06;;;20.43;100.00
28911;BME280;16028;42.642;23.310;2022-08-21T07:43:02;93472.97;;;20.77;100.00
28911;BME280;16028;42.642;23.310;2022-08-21T07:46:09;93462.31;;;20.84;99.34
28911;BME280;16028;42.642;23.310;2022-08-21T07:52:26;93470.06;;;20.85;95.81
28911;BME280;16028;42.642;23.310;2022-08-21T07:58:20;93468.38;;;20.73;93.87
28911;BME280;16028;42.642;23.310;2022-08-21T08:00:47;93467.16;;;20.57;95.67
28911;BME280;16028;42.642;23.310;2022-08-21T08:03:14;93469.47;;;20.65;99.03
28911;BME280;16028;42.642;23.310;2022-08-21T08:05:49;93480.06;;;20.83;100.00
28911;BME280;16028;42.642;23.310;2022-08-21T08:08:18;93475.16;;;20.98;94.81
28911;BME280;16028;42.642;23.310;2022-08-21T08:10:45;93467.59;;;21.02;97.64
28911;BME280;16028;42.642;23.310;2022-08-21T08:13:14;93478.41;;;21.19;95.00
28911;BME280;16028;42.642;23.310;2022-08-21T08:15:44;93478.72;;;21.22;94.77
28911;BME280;16028;42.642;23.310;2022-08-21T08:18:11;93461.63;;;21.06;95.79
28911;BME280;16028;42.642;23.310;2022-08-21T08:20:42;93463.44;;;21.24;94.98
28911;BME280;16028;42.642;23.310;2022-08-21T08:23:12;93469.22;;;21.33;93.74
28911;BME280;16028;42.642;23.310;2022-08-21T08:25:41;93477.16;;;21.33;95.34
28911;BME280;16028;42.642;23.310;2022-08-21T08:28:11;93473.59;;;21.27;97.19
28911;BME280;16028;42.642;23.310;2022-08-21T08:30:39;93478.63;;;21.29;97.04
28911;BME280;16028;42.642;23.310;2022-08-21T08:33:06;93466.34;;;21.34;93.94
28911;BME280;16028;42.642;23.310;2022-08-21T08:35:33;93482.72;;;21.43;92.75
28911;BME280;16028;42.642;23.310;2022-08-21T08:38:00;93475.50;;;21.50;91.45
28911;BME280;16028;42.642;23.310;2022-08-21T08:40:32;93480.22;;;21.59;90.13
28911;BME280;16028;42.642;23.310;2022-08-21T08:43:06;93484.91;;;21.57;92.21
28911;BME280;16028;42.642;23.310;2022-08-21T08:45:36;93479.50;;;21.52;91.07
28911;BME280;16028;42.642;23.310;2022-08-21T08:48:10;93474.78;;;21.54;92.70
28911;BME280;16028;42.642;23.310;2022-08-21T08:50:41;93479.06;;;21.55;92.12
28911;BME280;16028;42.642;23.310;2022-08-21T08:53:12;93475.50;;;21.61;91.78
28911;BME280;16028;42.642;23.310;2022-08-21T08:55:43;93467.56;;;21.73;87.90
28911;BME280;16028;42.642;23.310;2022-08-21T08:58:16;93467.34;;;21.75;88.28
28911;BME280;16028;42.642;23.310;2022-08-21T09:00:47;93460.78;;;21.77;89.55
28911;BME280;16028;42.642;23.310;2022-08-21T09:03:15;93458.38;;;21.87;89.37
28911;BME280;16028;42.642;23.310;2022-08-21T09:05:46;93457.84;;;21.97;86.86
28911;BME280;16028;42.642;23.310;2022-08-21T09:08:31;93451.50;;;21.98;88.15
28911;BME280;16028;42.642;23.310;2022-08-21T09:11:04;93446.78;;;22.00;88.53
28911;BME280;16028;42.642;23.310;2022-08-21T09:13:45;93444.22;;;22.05;90.47
28911;BME280;16028;42.642;23.310;2022-08-21T09:16:26;93441.00;;;22.03;90.26
28911;BME280;16028;42.642;23.310;2022-08-21T09:19:04;93427.56;;;22.04;89.38
28911;BME280;16028;42.642;23.310;2022-08-21T09:21:41;93444.94;;;22.24;81.01
28911;BME280;16028;42.642;23.310;2022-08-21T09:24:25;93429.00;;;22.35;80.19
28911;BME280;16028;42.642;23.310;2022-08-21T09:27:02;93429.69;;;22.31;81.73
28911;BME280;16028;42.642;23.310;2022-08-21T09:29:36;93430.28;;;22.21;83.54
28911;BME280;16028;42.642;23.310;2022-08-21T09:32:11;93431.22;;;22.15;85.08
28911;BME280;16028;42.642;23.310;2022-08-21T09:34:39;93430.53;;;22.20;84.94
28911;BME280;16028;42.642;23.310;2022-08-21T09:37:16;93424.19;;;22.21;85.59
28911;BME280;16028;42.642;23.310;2022-08-21T09:39:43;93432.34;;;22.42;80.48
28911;BME280;16028;42.642;23.310;2022-08-21T09:42:10;93428.63;;;22.55;80.00
28911;BME280;16028;42.642;23.310;2022-08-21T09:44:40;93426.31;;;22.47;82.03
28911;BME280;16028;42.642;23.310;2022-08-21T09:47:12;93430.25;;;22.44;82.91
28911;BME280;16028;42.642;23.310;2022-08-21T09:49:42;93429.44;;;22.44;82.40
28911;BME280;16028;42.642;23.310;2022-08-21T09:52:17;93424.47;;;22.47;82.66
28911;BME280;16028;42.642;23.310;2022-08-21T09:54:51;93424.72;;;22.46;83.58
28911;BME280;16028;42.642;23.310;2022-08-21T09:57:23;93425.28;;;22.48;84.29
28911;BME280;16028;42.642;23.310;2022-08-21T10:00:18;93417.44;;;22.53;82.54
28911;BME280;16028;42.642;23.310;2022-08-21T10:02:46;93416.88;;;22.51;83.13
28911;BME280;16028;42.642;23.310;2022-08-21T10:05:17;93422.25;;;22.56;83.20
28911;BME280;16028;42.642;23.310;2022-08-21T10:07:44;93416.66;;;22.52;83.69
28911;BME280;16028;42.642;23.310;2022-08-21T10:10:18;93415.59;;;22.53;82.22
28911;BME280;16028;42.642;23.310;2022-08-21T10:12:50;93409.81;;;22.56;82.21
28911;BME280;16028;42.642;23.310;2022-08-21T10:15:29;93417.28;;;22.59;85.01
28911;BME280;16028;42.642;23.310;2022-08-21T10:18:06;93405.97;;;22.76;82.68
28911;BME280;16028;42.642;23.310;2022-08-21T10:20:42;93404.25;;;22.81;82.00
28911;BME280;16028;42.642;23.310;2022-08-21T10:23:16;93401.13;;;22.84;80.66
28911;BME280;16028;42.642;23.310;2022-08-21T10:25:54;93390.84;;;22.88;81.58
28911;BME280;16028;42.642;23.310;2022-08-21T10:28:32;93396.16;;;23.04;78.58
28911;BME280;16028;42.642;23.310;2022-08-21T10:31:12;93393.19;;;23.01;79.37
28911;BME280;16028;42.642;23.310;2022-08-21T10:33:46;93389.91;;;23.10;81.31
28911;BME280;16028;42.642;23.310;2022-08-21T10:36:22;93383.41;;;23.18;82.13
28911;BME280;16028;42.642;23.310;2022-08-21T10:39:03;93377.78;;;23.31;81.09
28911;BME280;16028;42.642;23.310;2022-08-21T10:41:45;93390.38;;;23.52;80.96
28911;BME280;16028;42.642;23.310;2022-08-21T10:44:23;93386.41;;;23.55;81.40
28911;BME280;16028;42.642;23.310;2022-08-21T10:47:03;93379.59;;;23.59;78.16
28911;BME280;16028;42.642;23.310;2022-08-21T10:49:38;93377.50;;;23.61;77.36
28911;BME280;16028;42.642;23.310;2022-08-21T10:52:35;93371.63;;;23.59;77.59
28911;BME280;16028;42.642;23.310;2022-08-21T10:55:09;93373.25;;;23.60;78.37
28911;BME280;16028;42.642;23.310;2022-08-21T10:57:41;93363.81;;;23.52;78.63
28911;BME280;16028;42.642;23.310;2022-08-21T11:00:18;93360.34;;;23.52;76.22
28911;BME280;16028;42.642;23.310;2022-08-21T11:02:52;93358.44;;;23.47;75.98
28911;BME280;16028;42.642;23.310;2022-08-21T11:05:31;93360.44;;;23.57;74.84
28911;BME280;16028;42.642;23.310;2022-08-21T11:08:03;93355.78;;;23.64;74.15
28911;BME280;16028;42.642;23.310;2022-08-21T11:10:34;93336.59;;;23.62;74.99
28911;BME280;16028;42.642;23.310;2022-08-21T11:13:06;93338.28;;;23.68;71.53
28911;BME280;16028;42.642;23.310;2022-08-21T11:15:40;93334.66;;;23.74;74.74
28911;BME280;16028;42.642;23.310;2022-08-21T11:18:22;93342.63;;;23.74;70.60
28911;BME280;16028;42.642;23.310;2022-08-21T11:20:59;93345.16;;;23.64;74.67
28911;BME280;16028;42.642;23.310;2022-08-21T11:23:37;93344.09;;;23.65;72.50
28911;BME280;16028;42.642;23.310;2022-08-21T11:26:11;93329.72;;;23.61;74.01
28911;BME280;16028;42.642;23.310;2022-08-21T11:28:51;93340.72;;;23.53;72.76
28911;BME280;16028;42.642;23.310;2022-08-21T11:31:34;93341.00;;;23.51;73.64
28911;BME280;16028;42.642;23.310;2022-08-21T11:34:18;93337.69;;;23.61;71.81
28911;BME280;16028;42.642;23.310;2022-08-21T11:36:57;93326.91;;;23.51;71.42
28911;BME280;16028;42.642;23.310;2022-08-21T11:39:43;93330.19;;;23.58;72.86
28911;BME280;16028;42.642;23.310;2022-08-21T11:42:40;93333.16;;;23.61;71.92
28911;BME280;16028;42.642;23.310;2022-08-21T11:45:26;93327.44;;;23.69;73.30
28911;BME280;16028;42.642;23.310;2022-08-21T11:48:16;93339.50;;;23.77;71.06
28911;BME280;16028;42.642;23.310;2022-08-21T11:50:58;93336.84;;;23.77;69.82
28911;BME280;16028;42.642;23.310;2022-08-21T11:56:30;93321.81;;;23.66;72.46
28911;BME280;16028;42.642;23.310;2022-08-21T11:56:55;93320.69;;;23.62;72.38
28911;BME280;16028;42.642;23.310;2022-08-21T11:59:57;93328.59;;;23.57;71.94
28911;BME280;16028;42.642;23.310;2022-08-21T12:02:30;93325.59;;;23.70;72.21
28911;BME280;16028;42.642;23.310;2022-08-21T12:05:04;93309.38;;;23.71;71.97
28911;BME280;16028;42.642;23.310;2022-08-21T12:08:00;93318.72;;;23.74;72.64
28911;BME280;16028;42.642;23.310;2022-08-21T12:10:39;93310.75;;;23.74;74.55
28911;BME280;16028;42.642;23.310;2022-08-21T12:13:11;93310.38;;;23.65;73.93
28911;BME280;16028;42.642;23.310;2022-08-21T12:16:13;93302.34;;;23.60;72.79
28911;BME280;16028;42.642;23.310;2022-08-21T12:18:43;93311.19;;;23.66;73.68
28911;BME280;16028;42.642;23.310;2022-08-21T12:21:21;93318.09;;;23.67;73.34
28911;BME280;16028;42.642;23.310;2022-08-21T12:24:03;93323.09;;;23.63;73.27
28911;BME280;16028;42.642;23.310;2022-08-21T12:26:34;93319.38;;;23.64;73.62
28911;BME280;16028;42.642;23.310;2022-08-21T12:29:05;93316.25;;;23.67;71.70
28911;BME280;16028;42.642;23.310;2022-08-21T12:31:49;93318.97;;;23.73;74.37
28911;BME280;16028;42.642;23.310;2022-08-21T12:34:20;93322.44;;;23.73;73.86
28911;BME280;16028;42.642;23.310;2022-08-21T12:37:00;93325.97;;;23.79;73.45
28911;BME280;16028;42.642;23.310;2022-08-21T12:39:34;93319.53;;;23.75;73.10
28911;BME280;16028;42.642;23.310;2022-08-21T12:42:07;93315.44;;;23.67;74.83
28911;BME280;16028;42.642;23.310;2022-08-21T12:44:48;93316.50;;;23.66;74.96
28911;BME280;16028;42.642;23.310;2022-08-21T12:47:22;93309.97;;;23.74;75.08
28911;BME280;16028;42.642;23.310;2022-08-21T12:50:00;93320.28;;;23.70;74.54
28911;BME280;16028;42.642;23.310;2022-08-21T12:52:29;93313.66;;;23.73;74.51
28911;BME280;16028;42.642;23.310;2022-08-21T12:55:00;93317.19;;;23.78;74.73
28911;BME280;16028;42.642;23.310;2022-08-21T12:57:29;93313.72;;;23.78;74.86
28911;BME280;16028;42.642;23.310;2022-08-21T12:59:58;93310.75;;;23.74;75.63
28911;BME280;16028;42.642;23.310;2022-08-21T13:02:28;93303.28;;;23.71;75.98
28911;BME280;16028;42.642;23.310;2022-08-21T13:04:57;93302.34;;;23.60;77.29
28911;BME280;16028;42.642;23.310;2022-08-21T13:07:27;93298.88;;;23.60;77.95
28911;BME280;16028;42.642;23.310;2022-08-21T13:10:02;93308.47;;;23.61;76.79
28911;BME280;16028;42.642;23.310;2022-08-21T13:12:29;93304.09;;;23.55;76.85
28911;BME280;16028;42.642;23.310;2022-08-21T13:14:58;93307.56;;;23.55;78.54